sensor_id;sensor_type;location;lat;lon;timestamp;P1;durP1;ratioP1;P2;durP2;ratioP2
1204;SDS011;592;48.764;9.174;2023-01-29T00:00:17;12.77;;;8.40;;
1204;SDS011;592;48.764;9.174;2023-01-29T00:02:46;12.77;;;8.10;;
1204;SDS011;592;48.764;9.174;2023-01-29T00:05:13;13.87;;;9.17;;
1204;SDS011;592;48.764;9.174;2023-01-29T00:07:40;12.83;;;8.17;;
1204;SDS011;592;48.764;9.174;2023-01-29T00:10:07;11.07;;;8.00;;
1204;SDS011;592;48.764;9.174;2023-01-29T00:12:35;13.30;;;8.93;;
1204;SDS011;592;48.764;9.174;2023-01-29T00:15:02;16.90;;;8.90;;
1204;SDS011;592;48.764;9.174;2023-01-29T00:17:29;12.93;;;8.40;;
1204;SDS011;592;48.764;9.174;2023-01-29T00:19:57;13.70;;;8.57;;
1204;SDS011;592;48.764;9.174;2023-01-29T00:22:23;13.00;;;8.77;;
1204;SDS011;592;48.764;9.174;2023-01-29T00:24:51;13.50;;;9.00;;
1204;SDS011;592;48.764;9.174;2023-01-29T00:27:17;10.97;;;7.97;;
1204;SDS011;592;48.764;9.174;2023-01-29T00:29:44;15.27;;;9.70;;
1204;SDS011;592;48.764;9.174;2023-01-29T00:32:31;13.03;;;8.60;;
1204;SDS011;592;48.764;9.174;2023-01-29T00:34:59;13.80;;;8.90;;
1204;SDS011;592;48.764;9.174;2023-01-29T00:37:26;14.23;;;9.87;;
1204;SDS011;592;48.764;9.174;2023-01-29T00:39:52;13.17;;;8.83;;
1204;SDS011;592;48.764;9.174;2023-01-29T00:42:19;14.43;;;7.73;;
1204;SDS011;592;48.764;9.174;2023-01-29T00:45:03;13.43;;;9.33;;
1204;SDS011;592;48.764;9.174;2023-01-29T00:47:31;13.27;;;8.87;;
1204;SDS011;592;48.764;9.174;2023-01-29T00:49:59;14.37;;;9.60;;
1204;SDS011;592;48.764;9.174;2023-01-29T00:52:27;12.67;;;9.13;;
1204;SDS011;592;48.764;9.174;2023-01-29T00:54:54;12.50;;;8.40;;
1204;SDS011;592;48.764;9.174;2023-01-29T00:57:23;13.83;;;8.43;;
1204;SDS011;592;48.764;9.174;2023-01-29T00:59:51;14.67;;;9.40;;
1204;SDS011;592;48.764;9.174;2023-01-29T01:02:18;12.87;;;8.53;;
1204;SDS011;592;48.764;9.174;2023-01-29T01:05:05;12.87;;;9.37;;
1204;SDS011;592;48.764;9.174;2023-01-29T01:07:41;15.00;;;9.10;;
1204;SDS011;592;48.764;9.174;2023-01-29T01:10:11;14.20;;;8.70;;
1204;SDS011;592;48.764;9.174;2023-01-29T01:12:49;12.70;;;8.33;;
1204;SDS011;592;48.764;9.174;2023-01-29T01:15:18;12.40;;;8.20;;
1204;SDS011;592;48.764;9.174;2023-01-29T01:17:45;14.50;;;8.03;;
1204;SDS011;592;48.764;9.174;2023-01-29T01:20:14;14.50;;;8.87;;
1204;SDS011;592;48.764;9.174;2023-01-29T01:22:42;13.43;;;8.77;;
1204;SDS011;592;48.764;9.174;2023-01-29T01:25:09;13.03;;;8.17;;
1204;SDS011;592;48.764;9.174;2023-01-29T01:27:35;17.53;;;9.17;;
1204;SDS011;592;48.764;9.174;2023-01-29T01:30:06;11.30;;;8.17;;
1204;SDS011;592;48.764;9.174;2023-01-29T01:32:34;12.27;;;8.27;;
1204;SDS011;592;48.764;9.174;2023-01-29T01:35:01;11.63;;;7.90;;
1204;SDS011;592;48.764;9.174;2023-01-29T01:37:29;11.60;;;7.60;;
1204;SDS011;592;48.764;9.174;2023-01-29T01:39:56;13.63;;;8.20;;
1204;SDS011;592;48.764;9.174;2023-01-29T01:42:22;14.77;;;7.73;;
1204;SDS011;592;48.764;9.174;2023-01-29T01:44:55;12.83;;;8.10;;
1204;SDS011;592;48.764;9.174;2023-01-29T01:47:29;14.43;;;8.47;;
1204;SDS011;592;48.764;9.174;2023-01-29T01:50:00;12.70;;;7.90;;
1204;SDS011;592;48.764;9.174;2023-01-29T01:52:33;13.57;;;8.30;;
1204;SDS011;592;48.764;9.174;2023-01-29T01:55:04;14.07;;;8.50;;
1204;SDS011;592;48.764;9.174;2023-01-29T01:57:32;12.40;;;8.67;;
1204;SDS011;592;48.764;9.174;2023-01-29T02:00:02;13.00;;;8.43;;
1204;SDS011;592;48.764;9.174;2023-01-29T02:02:35;14.50;;;8.57;;
1204;SDS011;592;48.764;9.174;2023-01-29T02:05:21;13.20;;;7.83;;
1204;SDS011;592;48.764;9.174;2023-01-29T02:08:07;13.10;;;8.63;;
1204;SDS011;592;48.764;9.174;2023-01-29T02:10:52;13.03;;;7.70;;
1204;SDS011;592;48.764;9.174;2023-01-29T02:13:20;11.90;;;7.93;;
1204;SDS011;592;48.764;9.174;2023-01-29T02:15:47;13.87;;;7.83;;
1204;SDS011;592;48.764;9.174;2023-01-29T02:18:14;12.37;;;8.17;;
1204;SDS011;592;48.764;9.174;2023-01-29T02:20:43;13.57;;;8.30;;
1204;SDS011;592;48.764;9.174;2023-01-29T02:23:20;10.30;;;6.77;;
1204;SDS011;592;48.764;9.174;2023-01-29T02:26:24;10.50;;;7.37;;
1204;SDS011;592;48.764;9.174;2023-01-29T02:29:17;11.70;;;7.80;;
1204;SDS011;592;48.764;9.174;2023-01-29T02:31:51;13.47;;;7.77;;
1204;SDS011;592;48.764;9.174;2023-01-29T02:34:26;12.63;;;7.73;;
1204;SDS011;592;48.764;9.174;2023-01-29T02:37:19;11.37;;;8.03;;
1204;SDS011;592;48.764;9.174;2023-01-29T02:39:53;11.00;;;7.43;;
1204;SDS011;592;48.764;9.174;2023-01-29T02:42:30;12.90;;;8.43;;
1204;SDS011;592;48.764;9.174;2023-01-29T02:45:04;15.17;;;7.50;;
1204;SDS011;592;48.764;9.174;2023-01-29T02:47:38;12.83;;;8.07;;
1204;SDS011;592;48.764;9.174;2023-01-29T02:50:12;11.33;;;7.67;;
1204;SDS011;592;48.764;9.174;2023-01-29T02:52:43;12.27;;;8.37;;
1204;SDS011;592;48.764;9.174;2023-01-29T02:55:19;12.43;;;7.70;;
1204;SDS011;592;48.764;9.174;2023-01-29T02:57:49;15.60;;;8.70;;
1204;SDS011;592;48.764;9.174;2023-01-29T03:00:22;14.77;;;7.50;;
1204;SDS011;592;48.764;9.174;2023-01-29T03:02:54;11.90;;;7.43;;
1204;SDS011;592;48.764;9.174;2023-01-29T03:05:25;12.47;;;8.00;;
1204;SDS011;592;48.764;9.174;2023-01-29T03:07:58;10.10;;;6.53;;
1204;SDS011;592;48.764;9.174;2023-01-29T03:10:30;14.00;;;8.00;;
1204;SDS011;592;48.764;9.174;2023-01-29T03:13:04;12.60;;;7.70;;
1204;SDS011;592;48.764;9.174;2023-01-29T03:15:37;11.27;;;6.77;;
1204;SDS011;592;48.764;9.174;2023-01-29T03:18:11;12.00;;;7.20;;
1204;SDS011;592;48.764;9.174;2023-01-29T03:20:41;12.03;;;7.77;;
1204;SDS011;592;48.764;9.174;2023-01-29T03:23:13;14.27;;;8.57;;
1204;SDS011;592;48.764;9.174;2023-01-29T03:25:47;13.17;;;7.37;;
1204;SDS011;592;48.764;9.174;2023-01-29T03:28:34;13.47;;;8.40;;
1204;SDS011;592;48.764;9.174;2023-01-29T03:31:21;13.83;;;7.53;;
1204;SDS011;592;48.764;9.174;2023-01-29T03:34:10;13.00;;;7.83;;
1204;SDS011;592;48.764;9.174;2023-01-29T03:36:42;12.00;;;7.50;;
1204;SDS011;592;48.764;9.174;2023-01-29T03:39:19;12.17;;;7.80;;
1204;SDS011;592;48.764;9.174;2023-01-29T03:41:51;12.80;;;7.80;;
1204;SDS011;592;48.764;9.174;2023-01-29T03:44:24;10.70;;;7.80;;
1204;SDS011;592;48.764;9.174;2023-01-29T03:47:02;10.53;;;7.20;;
1204;SDS011;592;48.764;9.174;2023-01-29T03:49:40;10.80;;;7.57;;
1204;SDS011;592;48.764;9.174;2023-01-29T03:52:20;14.07;;;7.90;;
1204;SDS011;592;48.764;9.174;2023-01-29T03:54:53;15.77;;;7.60;;
1204;SDS011;592;48.764;9.174;2023-01-29T03:57:26;13.07;;;6.60;;
1204;SDS011;592;48.764;9.174;2023-01-29T04:00:00;17.07;;;7.17;;
1204;SDS011;592;48.764;9.174;2023-01-29T04:02:37;11.00;;;7.00;;
1204;SDS011;592;48.764;9.174;2023-01-29T04:05:08;11.80;;;7.57;;
1204;SDS011;592;48.764;9.174;2023-01-29T04:07:42;10.53;;;7.30;;
1204;SDS011;592;48.764;9.174;2023-01-29T04:10:11;12.27;;;7.77;;
1204;SDS011;592;48.764;9.174;2023-01-29T04:12:42;12.30;;;7.43;;
1204;SDS011;592;48.764;9.174;2023-01-29T04:15:13;13.10;;;7.30;;
1204;SDS011;592;48.764;9.174;2023-01-29T04:17:44;12.30;;;7.73;;
1204;SDS011;592;48.764;9.174;2023-01-29T04:20:15;12.27;;;7.67;;
1204;SDS011;592;48.764;9.174;2023-01-29T04:22:43;11.80;;;7.43;;
1204;SDS011;592;48.764;9.174;2023-01-29T04:25:12;13.93;;;7.50;;
1204;SDS011;592;48.764;9.174;2023-01-29T04:27:42;12.57;;;7.67;;
1204;SDS011;592;48.764;9.174;2023-01-29T04:30:20;13.07;;;7.97;;
1204;SDS011;592;48.764;9.174;2023-01-29T04:32:56;13.10;;;8.00;;
1204;SDS011;592;48.764;9.174;2023-01-29T04:35:29;14.90;;;8.03;;
1204;SDS011;592;48.764;9.174;2023-01-29T04:38:04;12.30;;;7.93;;
1204;SDS011;592;48.764;9.174;2023-01-29T04:40:38;13.30;;;7.63;;
1204;SDS011;592;48.764;9.174;2023-01-29T04:43:13;10.13;;;6.97;;
1204;SDS011;592;48.764;9.174;2023-01-29T04:45:47;11.87;;;8.37;;
1204;SDS011;592;48.764;9.174;2023-01-29T04:48:31;12.47;;;7.40;;
1204;SDS011;592;48.764;9.174;2023-01-29T04:51:09;15.60;;;8.77;;
1204;SDS011;592;48.764;9.174;2023-01-29T04:53:44;11.90;;;8.17;;
1204;SDS011;592;48.764;9.174;2023-01-29T04:56:16;12.30;;;8.20;;
1204;SDS011;592;48.764;9.174;2023-01-29T04:58:47;13.37;;;7.20;;
1204;SDS011;592;48.764;9.174;2023-01-29T05:01:19;15.10;;;8.97;;
1204;SDS011;592;48.764;9.174;2023-01-29T05:03:51;13.20;;;8.27;;
1204;SDS011;592;48.764;9.174;2023-01-29T05:06:20;11.63;;;7.60;;
1204;SDS011;592;48.764;9.174;2023-01-29T05:08:49;11.37;;;7.10;;
1204;SDS011;592;48.764;9.174;2023-01-29T05:11:17;11.10;;;7.33;;
1204;SDS011;592;48.764;9.174;2023-01-29T05:13:45;11.30;;;7.83;;
1204;SDS011;592;48.764;9.174;2023-01-29T05:16:14;13.87;;;7.97;;
1204;SDS011;592;48.764;9.174;2023-01-29T05:18:44;15.57;;;8.47;;
1204;SDS011;592;48.764;9.174;2023-01-29T05:21:13;14.20;;;8.07;;
1204;SDS011;592;48.764;9.174;2023-01-29T05:23:40;14.30;;;7.90;;
1204;SDS011;592;48.764;9.174;2023-01-29T05:26:23;13.13;;;8.90;;
1204;SDS011;592;48.764;9.174;2023-01-29T05:29:07;16.37;;;7.97;;
1204;SDS011;592;48.764;9.174;2023-01-29T05:31:36;14.83;;;8.40;;
1204;SDS011;592;48.764;9.174;2023-01-29T05:34:02;12.27;;;7.77;;
1204;SDS011;592;48.764;9.174;2023-01-29T05:36:30;10.80;;;7.53;;
1204;SDS011;592;48.764;9.174;2023-01-29T05:38:57;12.70;;;7.70;;
1204;SDS011;592;48.764;9.174;2023-01-29T05:41:24;13.13;;;8.33;;
1204;SDS011;592;48.764;9.174;2023-01-29T05:43:50;11.27;;;7.87;;
1204;SDS011;592;48.764;9.174;2023-01-29T05:46:17;15.77;;;8.97;;
1204;SDS011;592;48.764;9.174;2023-01-29T05:48:44;13.27;;;8.50;;
1204;SDS011;592;48.764;9.174;2023-01-29T05:51:11;13.20;;;7.70;;
1204;SDS011;592;48.764;9.174;2023-01-29T05:53:39;11.30;;;7.90;;
1204;SDS011;592;48.764;9.174;2023-01-29T05:56:05;14.70;;;8.20;;
1204;SDS011;592;48.764;9.174;2023-01-29T05:58:32;14.33;;;8.20;;
1204;SDS011;592;48.764;9.174;2023-01-29T06:01:07;13.00;;;7.77;;
1204;SDS011;592;48.764;9.174;2023-01-29T06:03:34;10.97;;;7.63;;
1204;SDS011;592;48.764;9.174;2023-01-29T06:06:01;11.80;;;7.40;;
1204;SDS011;592;48.764;9.174;2023-01-29T06:08:28;11.80;;;7.93;;
1204;SDS011;592;48.764;9.174;2023-01-29T06:10:56;13.23;;;8.67;;
1204;SDS011;592;48.764;9.174;2023-01-29T06:13:23;12.93;;;8.67;;
1204;SDS011;592;48.764;9.174;2023-01-29T06:15:50;14.30;;;8.70;;
1204;SDS011;592;48.764;9.174;2023-01-29T06:18:16;13.90;;;7.90;;
1204;SDS011;592;48.764;9.174;2023-01-29T06:20:43;12.97;;;7.90;;
1204;SDS011;592;48.764;9.174;2023-01-29T06:23:10;12.60;;;7.90;;
1204;SDS011;592;48.764;9.174;2023-01-29T06:25:36;12.70;;;7.87;;
1204;SDS011;592;48.764;9.174;2023-01-29T06:28:05;13.17;;;8.10;;
1204;SDS011;592;48.764;9.174;2023-01-29T06:30:31;10.80;;;7.90;;
1204;SDS011;592;48.764;9.174;2023-01-29T06:32:58;12.00;;;8.27;;
1204;SDS011;592;48.764;9.174;2023-01-29T06:35:25;10.53;;;7.27;;
1204;SDS011;592;48.764;9.174;2023-01-29T06:37:53;13.37;;;8.60;;
1204;SDS011;592;48.764;9.174;2023-01-29T06:40:21;13.00;;;8.00;;
1204;SDS011;592;48.764;9.174;2023-01-29T06:42:47;13.60;;;8.50;;
1204;SDS011;592;48.764;9.174;2023-01-29T06:45:15;12.17;;;8.37;;
1204;SDS011;592;48.764;9.174;2023-01-29T06:47:42;11.90;;;7.93;;
1204;SDS011;592;48.764;9.174;2023-01-29T06:50:09;16.47;;;9.23;;
1204;SDS011;592;48.764;9.174;2023-01-29T06:52:36;12.30;;;8.00;;
1204;SDS011;592;48.764;9.174;2023-01-29T06:55:03;12.30;;;7.60;;
1204;SDS011;592;48.764;9.174;2023-01-29T06:57:31;11.50;;;7.30;;
1204;SDS011;592;48.764;9.174;2023-01-29T06:59:57;12.70;;;7.77;;
1204;SDS011;592;48.764;9.174;2023-01-29T07:02:25;13.07;;;8.00;;
1204;SDS011;592;48.764;9.174;2023-01-29T07:04:52;12.30;;;8.40;;
1204;SDS011;592;48.764;9.174;2023-01-29T07:07:19;11.47;;;7.47;;
1204;SDS011;592;48.764;9.174;2023-01-29T07:09:45;14.07;;;9.13;;
1204;SDS011;592;48.764;9.174;2023-01-29T07:12:12;11.43;;;8.30;;
1204;SDS011;592;48.764;9.174;2023-01-29T07:14:39;12.03;;;8.10;;
1204;SDS011;592;48.764;9.174;2023-01-29T07:17:05;13.20;;;8.37;;
1204;SDS011;592;48.764;9.174;2023-01-29T07:19:33;12.83;;;8.67;;
1204;SDS011;592;48.764;9.174;2023-01-29T07:22:00;12.60;;;7.83;;
1204;SDS011;592;48.764;9.174;2023-01-29T07:24:27;12.37;;;7.20;;
1204;SDS011;592;48.764;9.174;2023-01-29T07:26:54;14.37;;;8.80;;
1204;SDS011;592;48.764;9.174;2023-01-29T07:29:21;12.60;;;7.90;;
1204;SDS011;592;48.764;9.174;2023-01-29T07:31:48;12.73;;;8.20;;
1204;SDS011;592;48.764;9.174;2023-01-29T07:34:14;11.60;;;7.63;;
1204;SDS011;592;48.764;9.174;2023-01-29T07:36:42;11.73;;;7.13;;
1204;SDS011;592;48.764;9.174;2023-01-29T07:39:09;12.67;;;7.93;;
1204;SDS011;592;48.764;9.174;2023-01-29T07:41:36;14.07;;;8.80;;
1204;SDS011;592;48.764;9.174;2023-01-29T07:44:02;12.90;;;8.00;;
1204;SDS011;592;48.764;9.174;2023-01-29T07:46:29;12.40;;;8.23;;
1204;SDS011;592;48.764;9.174;2023-01-29T07:48:56;16.53;;;9.20;;
1204;SDS011;592;48.764;9.174;2023-01-29T07:51:23;10.93;;;7.80;;
1204;SDS011;592;48.764;9.174;2023-01-29T07:53:51;13.70;;;8.00;;
1204;SDS011;592;48.764;9.174;2023-01-29T07:56:18;12.50;;;7.73;;
1204;SDS011;592;48.764;9.174;2023-01-29T07:58:44;13.47;;;8.80;;
1204;SDS011;592;48.764;9.174;2023-01-29T08:01:11;14.63;;;10.03;;
1204;SDS011;592;48.764;9.174;2023-01-29T08:03:38;14.00;;;8.63;;
1204;SDS011;592;48.764;9.174;2023-01-29T08:06:04;16.60;;;9.70;;
1204;SDS011;592;48.764;9.174;2023-01-29T08:08:32;13.37;;;8.57;;
1204;SDS011;592;48.764;9.174;2023-01-29T08:11:00;13.90;;;8.90;;
1204;SDS011;592;48.764;9.174;2023-01-29T08:13:28;12.80;;;8.23;;
1204;SDS011;592;48.764;9.174;2023-01-29T08:15:57;14.63;;;9.20;;
1204;SDS011;592;48.764;9.174;2023-01-29T08:18:25;14.30;;;9.37;;
1204;SDS011;592;48.764;9.174;2023-01-29T08:20:51;14.17;;;9.03;;
1204;SDS011;592;48.764;9.174;2023-01-29T08:23:18;12.37;;;8.33;;
1204;SDS011;592;48.764;9.174;2023-01-29T08:25:45;17.53;;;8.97;;
1204;SDS011;592;48.764;9.174;2023-01-29T08:28:13;12.60;;;8.33;;
1204;SDS011;592;48.764;9.174;2023-01-29T08:30:39;13.53;;;8.93;;
1204;SDS011;592;48.764;9.174;2023-01-29T08:33:08;16.27;;;9.50;;
1204;SDS011;592;48.764;9.174;2023-01-29T08:35:35;14.03;;;9.10;;
1204;SDS011;592;48.764;9.174;2023-01-29T08:38:02;17.00;;;10.40;;
1204;SDS011;592;48.764;9.174;2023-01-29T08:40:30;13.63;;;9.43;;
1204;SDS011;592;48.764;9.174;2023-01-29T08:42:59;15.40;;;8.90;;
1204;SDS011;592;48.764;9.174;2023-01-29T08:45:28;15.07;;;8.97;;
1204;SDS011;592;48.764;9.174;2023-01-29T08:47:55;14.00;;;8.97;;
1204;SDS011;592;48.764;9.174;2023-01-29T08:50:22;16.73;;;9.47;;
1204;SDS011;592;48.764;9.174;2023-01-29T08:52:48;16.97;;;9.70;;
1204;SDS011;592;48.764;9.174;2023-01-29T08:55:15;22.57;;;9.80;;
1204;SDS011;592;48.764;9.174;2023-01-29T08:57:42;13.60;;;9.33;;
1204;SDS011;592;48.764;9.174;2023-01-29T09:00:09;18.07;;;9.23;;
1204;SDS011;592;48.764;9.174;2023-01-29T09:02:37;14.57;;;8.90;;
1204;SDS011;592;48.764;9.174;2023-01-29T09:05:04;14.23;;;9.03;;
1204;SDS011;592;48.764;9.174;2023-01-29T09:07:32;12.27;;;8.30;;
1204;SDS011;592;48.764;9.174;2023-01-29T09:09:58;14.50;;;9.60;;
1204;SDS011;592;48.764;9.174;2023-01-29T09:12:25;13.13;;;9.20;;
1204;SDS011;592;48.764;9.174;2023-01-29T09:14:52;14.60;;;9.13;;
1204;SDS011;592;48.764;9.174;2023-01-29T09:17:19;15.53;;;9.57;;
1204;SDS011;592;48.764;9.174;2023-01-29T09:19:47;13.30;;;9.07;;
1204;SDS011;592;48.764;9.174;2023-01-29T09:22:13;15.70;;;9.93;;
1204;SDS011;592;48.764;9.174;2023-01-29T09:24:40;14.97;;;9.00;;
1204;SDS011;592;48.764;9.174;2023-01-29T09:27:07;12.87;;;8.93;;
1204;SDS011;592;48.764;9.174;2023-01-29T09:29:34;15.00;;;9.27;;
1204;SDS011;592;48.764;9.174;2023-01-29T09:32:02;14.90;;;9.60;;
1204;SDS011;592;48.764;9.174;2023-01-29T09:34:29;12.83;;;8.90;;
1204;SDS011;592;48.764;9.174;2023-01-29T09:36:57;16.73;;;10.40;;
1204;SDS011;592;48.764;9.174;2023-01-29T09:39:23;14.17;;;10.40;;
1204;SDS011;592;48.764;9.174;2023-01-29T09:41:51;16.83;;;10.23;;
1204;SDS011;592;48.764;9.174;2023-01-29T09:44:26;14.20;;;10.13;;
1204;SDS011;592;48.764;9.174;2023-01-29T09:47:12;14.17;;;9.50;;
1204;SDS011;592;48.764;9.174;2023-01-29T09:49:42;15.40;;;9.70;;
1204;SDS011;592;48.764;9.174;2023-01-29T09:52:15;14.57;;;10.00;;
1204;SDS011;592;48.764;9.174;2023-01-29T09:54:47;16.00;;;10.63;;
1204;SDS011;592;48.764;9.174;2023-01-29T09:57:18;17.43;;;10.67;;
1204;SDS011;592;48.764;9.174;2023-01-29T09:59:49;15.60;;;10.33;;
1204;SDS011;592;48.764;9.174;2023-01-29T10:02:19;15.70;;;10.43;;
1204;SDS011;592;48.764;9.174;2023-01-29T10:05:09;17.03;;;9.97;;
1204;SDS011;592;48.764;9.174;2023-01-29T10:07:54;14.77;;;9.90;;
1204;SDS011;592;48.764;9.174;2023-01-29T10:10:42;16.43;;;10.27;;
1204;SDS011;592;48.764;9.174;2023-01-29T10:13:17;15.70;;;10.23;;
1204;SDS011;592;48.764;9.174;2023-01-29T10:15:56;16.53;;;10.90;;
1204;SDS011;592;48.764;9.174;2023-01-29T10:18:37;18.13;;;10.17;;
1204;SDS011;592;48.764;9.174;2023-01-29T10:21:22;16.90;;;10.53;;
1204;SDS011;592;48.764;9.174;2023-01-29T10:23:59;14.63;;;10.37;;
1204;SDS011;592;48.764;9.174;2023-01-29T10:26:34;15.47;;;10.30;;
1204;SDS011;592;48.764;9.174;2023-01-29T10:29:04;13.53;;;9.30;;
1204;SDS011;592;48.764;9.174;2023-01-29T10:31:33;15.27;;;10.97;;
1204;SDS011;592;48.764;9.174;2023-01-29T10:34:06;16.23;;;10.90;;
1204;SDS011;592;48.764;9.174;2023-01-29T10:36:39;16.00;;;11.20;;
1204;SDS011;592;48.764;9.174;2023-01-29T10:39:12;16.00;;;11.00;;
1204;SDS011;592;48.764;9.174;2023-01-29T10:41:53;15.57;;;10.10;;
1204;SDS011;592;48.764;9.174;2023-01-29T10:44:42;15.50;;;10.60;;
1204;SDS011;592;48.764;9.174;2023-01-29T10:47:21;15.87;;;10.53;;
1204;SDS011;592;48.764;9.174;2023-01-29T10:50:02;17.13;;;11.30;;
1204;SDS011;592;48.764;9.174;2023-01-29T10:52:40;18.43;;;12.00;;
1204;SDS011;592;48.764;9.174;2023-01-29T10:55:21;17.27;;;10.13;;
1204;SDS011;592;48.764;9.174;2023-01-29T10:58:00;15.17;;;10.77;;
1204;SDS011;592;48.764;9.174;2023-01-29T11:00:36;13.90;;;9.90;;
1204;SDS011;592;48.764;9.174;2023-01-29T11:03:11;13.67;;;10.20;;
1204;SDS011;592;48.764;9.174;2023-01-29T11:05:41;13.80;;;9.63;;
1204;SDS011;592;48.764;9.174;2023-01-29T11:08:15;14.13;;;10.67;;
1204;SDS011;592;48.764;9.174;2023-01-29T11:10:47;14.53;;;10.50;;
1204;SDS011;592;48.764;9.174;2023-01-29T11:13:24;14.40;;;10.10;;
1204;SDS011;592;48.764;9.174;2023-01-29T11:15:54;17.00;;;11.03;;
1204;SDS011;592;48.764;9.174;2023-01-29T11:18:21;18.93;;;10.90;;
1204;SDS011;592;48.764;9.174;2023-01-29T11:20:58;16.70;;;11.10;;
1204;SDS011;592;48.764;9.174;2023-01-29T11:23:27;15.57;;;10.67;;
1204;SDS011;592;48.764;9.174;2023-01-29T11:25:57;17.27;;;10.40;;
1204;SDS011;592;48.764;9.174;2023-01-29T11:28:34;15.23;;;10.63;;
1204;SDS011;592;48.764;9.174;2023-01-29T11:31:16;15.70;;;10.80;;
1204;SDS011;592;48.764;9.174;2023-01-29T11:33:45;15.27;;;10.50;;
1204;SDS011;592;48.764;9.174;2023-01-29T11:36:19;16.20;;;10.27;;
1204;SDS011;592;48.764;9.174;2023-01-29T11:39:04;14.93;;;10.00;;
1204;SDS011;592;48.764;9.174;2023-01-29T11:41:43;14.50;;;10.03;;
1204;SDS011;592;48.764;9.174;2023-01-29T11:44:31;16.03;;;10.43;;
1204;SDS011;592;48.764;9.174;2023-01-29T11:47:10;14.50;;;10.17;;
1204;SDS011;592;48.764;9.174;2023-01-29T11:49:44;14.63;;;10.43;;
1204;SDS011;592;48.764;9.174;2023-01-29T11:52:12;16.87;;;10.77;;
1204;SDS011;592;48.764;9.174;2023-01-29T11:54:43;13.80;;;9.43;;
1204;SDS011;592;48.764;9.174;2023-01-29T11:57:20;13.43;;;9.07;;
1204;SDS011;592;48.764;9.174;2023-01-29T11:59:51;13.73;;;9.60;;
1204;SDS011;592;48.764;9.174;2023-01-29T12:02:21;13.00;;;9.40;;
1204;SDS011;592;48.764;9.174;2023-01-29T12:04:52;13.77;;;10.00;;
1204;SDS011;592;48.764;9.174;2023-01-29T12:07:21;16.00;;;10.57;;
1204;SDS011;592;48.764;9.174;2023-01-29T12:09:48;13.40;;;9.53;;
1204;SDS011;592;48.764;9.174;2023-01-29T12:15:20;17.63;;;10.50;;
1204;SDS011;592;48.764;9.174;2023-01-29T12:17:57;13.93;;;10.37;;
1204;SDS011;592;48.764;9.174;2023-01-29T12:20:30;16.53;;;10.27;;
1204;SDS011;592;48.764;9.174;2023-01-29T12:23:03;15.93;;;11.23;;
1204;SDS011;592;48.764;9.174;2023-01-29T12:25:41;22.40;;;11.20;;
1204;SDS011;592;48.764;9.174;2023-01-29T12:28:18;17.40;;;10.80;;
1204;SDS011;592;48.764;9.174;2023-01-29T12:30:58;18.17;;;10.90;;
1204;SDS011;592;48.764;9.174;2023-01-29T12:33:41;18.60;;;12.00;;
1204;SDS011;592;48.764;9.174;2023-01-29T12:36:16;17.13;;;11.40;;
1204;SDS011;592;48.764;9.174;2023-01-29T12:38:48;16.93;;;10.67;;
1204;SDS011;592;48.764;9.174;2023-01-29T12:41:23;17.10;;;11.70;;
1204;SDS011;592;48.764;9.174;2023-01-29T12:43:58;20.63;;;11.20;;
1204;SDS011;592;48.764;9.174;2023-01-29T12:46:30;22.33;;;11.87;;
1204;SDS011;592;48.764;9.174;2023-01-29T12:49:02;17.43;;;10.30;;
1204;SDS011;592;48.764;9.174;2023-01-29T12:51:37;19.87;;;10.90;;
1204;SDS011;592;48.764;9.174;2023-01-29T12:54:10;14.90;;;10.10;;
1204;SDS011;592;48.764;9.174;2023-01-29T12:56:41;16.23;;;10.90;;
1204;SDS011;592;48.764;9.174;2023-01-29T12:59:14;15.27;;;9.70;;
1204;SDS011;592;48.764;9.174;2023-01-29T13:01:45;14.20;;;10.17;;
1204;SDS011;592;48.764;9.174;2023-01-29T13:04:18;16.63;;;10.90;;
1204;SDS011;592;48.764;9.174;2023-01-29T13:06:55;16.20;;;10.80;;
1204;SDS011;592;48.764;9.174;2023-01-29T13:09:27;15.63;;;11.60;;
1204;SDS011;592;48.764;9.174;2023-01-29T13:11:57;15.40;;;9.50;;
1204;SDS011;592;48.764;9.174;2023-01-29T13:14:30;13.87;;;9.50;;
1204;SDS011;592;48.764;9.174;2023-01-29T13:17:06;15.50;;;10.70;;
1204;SDS011;592;48.764;9.174;2023-01-29T13:19:39;15.30;;;10.57;;
1204;SDS011;592;48.764;9.174;2023-01-29T13:22:12;13.37;;;9.20;;
1204;SDS011;592;48.764;9.174;2023-01-29T13:24:44;14.27;;;9.73;;
1204;SDS011;592;48.764;9.174;2023-01-29T13:27:19;14.67;;;9.90;;
1204;SDS011;592;48.764;9.174;2023-01-29T13:29:50;16.03;;;11.03;;
1204;SDS011;592;48.764;9.174;2023-01-29T13:32:22;13.70;;;9.47;;
1204;SDS011;592;48.764;9.174;2023-01-29T13:34:51;17.10;;;10.80;;
1204;SDS011;592;48.764;9.174;2023-01-29T13:37:24;13.40;;;10.20;;
1204;SDS011;592;48.764;9.174;2023-01-29T13:39:55;13.93;;;9.53;;
1204;SDS011;592;48.764;9.174;2023-01-29T13:42:24;16.50;;;10.77;;
1204;SDS011;592;48.764;9.174;2023-01-29T13:45:02;16.13;;;11.03;;
1204;SDS011;592;48.764;9.174;2023-01-29T13:47:32;17.53;;;10.87;;
1204;SDS011;592;48.764;9.174;2023-01-29T13:50:02;15.07;;;10.40;;
1204;SDS011;592;48.764;9.174;2023-01-29T13:52:34;19.80;;;9.73;;
1204;SDS011;592;48.764;9.174;2023-01-29T13:55:04;16.87;;;10.40;;
1204;SDS011;592;48.764;9.174;2023-01-29T14:03:40;14.20;;;10.03;;
1204;SDS011;592;48.764;9.174;2023-01-29T14:06:08;15.60;;;10.30;;
1204;SDS011;592;48.764;9.174;2023-01-29T14:08:36;18.33;;;10.33;;
1204;SDS011;592;48.764;9.174;2023-01-29T14:13:58;17.73;;;10.70;;
1204;SDS011;592;48.764;9.174;2023-01-29T14:16:26;16.10;;;10.60;;
1204;SDS011;592;48.764;9.174;2023-01-29T14:19:01;19.10;;;10.93;;
1204;SDS011;592;48.764;9.174;2023-01-29T14:21:29;16.57;;;11.03;;
1204;SDS011;592;48.764;9.174;2023-01-29T14:23:58;17.60;;;11.33;;
1204;SDS011;592;48.764;9.174;2023-01-29T14:26:39;16.63;;;10.73;;
1204;SDS011;592;48.764;9.174;2023-01-29T14:29:15;17.80;;;10.00;;
1204;SDS011;592;48.764;9.174;2023-01-29T14:31:46;16.30;;;10.70;;
1204;SDS011;592;48.764;9.174;2023-01-29T14:34:21;15.90;;;10.70;;
1204;SDS011;592;48.764;9.174;2023-01-29T14:36:52;14.17;;;10.20;;
1204;SDS011;592;48.764;9.174;2023-01-29T14:39:22;17.23;;;10.43;;
1204;SDS011;592;48.764;9.174;2023-01-29T14:41:54;15.00;;;10.57;;
1204;SDS011;592;48.764;9.174;2023-01-29T14:47:50;15.20;;;10.17;;
1204;SDS011;592;48.764;9.174;2023-01-29T14:53:09;17.97;;;10.67;;
1204;SDS011;592;48.764;9.174;2023-01-29T14:55:39;15.50;;;9.80;;
1204;SDS011;592;48.764;9.174;2023-01-29T14:58:09;16.87;;;10.80;;
1204;SDS011;592;48.764;9.174;2023-01-29T15:00:40;26.37;;;16.60;;
1204;SDS011;592;48.764;9.174;2023-01-29T15:03:11;21.70;;;13.10;;
1204;SDS011;592;48.764;9.174;2023-01-29T15:05:45;19.37;;;12.37;;
1204;SDS011;592;48.764;9.174;2023-01-29T15:08:15;19.73;;;11.50;;
1204;SDS011;592;48.764;9.174;2023-01-29T15:10:54;22.57;;;13.60;;
1204;SDS011;592;48.764;9.174;2023-01-29T15:13:37;18.87;;;11.30;;
1204;SDS011;592;48.764;9.174;2023-01-29T15:16:12;17.00;;;10.47;;
1204;SDS011;592;48.764;9.174;2023-01-29T15:18:42;20.17;;;11.80;;
1204;SDS011;592;48.764;9.174;2023-01-29T15:21:11;16.10;;;10.57;;
1204;SDS011;592;48.764;9.174;2023-01-29T15:23:39;17.97;;;11.63;;
1204;SDS011;592;48.764;9.174;2023-01-29T15:26:08;16.10;;;10.10;;
1204;SDS011;592;48.764;9.174;2023-01-29T15:28:38;15.93;;;10.30;;
1204;SDS011;592;48.764;9.174;2023-01-29T15:31:06;18.20;;;11.17;;
1204;SDS011;592;48.764;9.174;2023-01-29T15:33:37;15.93;;;10.00;;
1204;SDS011;592;48.764;9.174;2023-01-29T15:36:15;16.60;;;10.67;;
1204;SDS011;592;48.764;9.174;2023-01-29T15:38:45;21.33;;;11.73;;
1204;SDS011;592;48.764;9.174;2023-01-29T15:41:15;15.80;;;10.30;;
1204;SDS011;592;48.764;9.174;2023-01-29T15:43:44;18.27;;;10.80;;
1204;SDS011;592;48.764;9.174;2023-01-29T15:46:14;17.63;;;11.90;;
1204;SDS011;592;48.764;9.174;2023-01-29T15:48:45;16.30;;;10.40;;
1204;SDS011;592;48.764;9.174;2023-01-29T15:51:15;18.90;;;11.27;;
1204;SDS011;592;48.764;9.174;2023-01-29T15:53:45;17.63;;;10.93;;